Saint Croix Falls, Wisconsin
Current Conditions -  °F | °C
As of 2:55 AM on Monday 22 Dec 2014 (Local Time) from KOEO Reporting Station
Moderate Rain Moderate Rain  
Wind Chill: 29°   Ceiling: 700
Heat Index: 37°   Visibility: 4mi
Dew Point: 37°   Wind: 12mph
Humidity: 100%   Direction: 140°SE
Pressure: 29.74"   Gusts: NA
Location:  45.41°N, 92.64°W
Report Text: KOEO 220855Z AUTO 14010KT 4SM RA OVC007 03/03 A2974 RMK AO2 P0001 60001 T00270027
Loading
Personal Weather Stations






























Interactive Weather Map New forecast layout! Learn more

10-Day Weather Forecast

Advertisements
Track Severe Weather on mobile